MMF11 EDDK-EDDK
Flight info
| Callsign | MMF11 |
|---|---|
| Flight time | 2h 37m |
| Altitude | 21000 |
| Route | WIPU1K WIPUR DCT BAM DCT HMM Z529 ITMIZ DCT SUQIF STAY01/0200 SUQIF Z529 HMM N853 DOMEG Z841 HEFME DCT KOPAG |
| Aircraft | A332/H-SDE3GHIJ2J3J5M1RVWXY/LB2D1 |
Departure
| Time | 2026-05-06 17:39 |
|---|---|
| Airport | Cologne Bonn Airport (EDDK) |
Arrival
| Time | 2026-05-06 20:16 |
|---|---|
| Airport | Cologne Bonn Airport (EDDK) |
| Time | Latitude | Longitude | Altitude | Speed | Heading |
|---|---|---|---|---|---|
| 2026-05-06 16:53 | 50.86609 | 7.12005 | 238 ft | 0 kts | 255° |
| 2026-05-06 17:29 | 50.86609 | 7.12006 | 238 ft | 1 kts | 255° |
| 2026-05-06 17:30 | 50.86612 | 7.12021 | 238 ft | 2 kts | 255° |
| 2026-05-06 17:30 | 50.86616 | 7.12045 | 238 ft | 2 kts | 255° |
| 2026-05-06 17:30 | 50.86620 | 7.12071 | 238 ft | 2 kts | 253° |
| 2026-05-06 17:30 | 50.86625 | 7.12096 | 238 ft | 2 kts | 243° |
| 2026-05-06 17:31 | 50.86633 | 7.12120 | 238 ft | 2 kts | 236° |
| 2026-05-06 17:31 | 50.86640 | 7.12137 | 238 ft | 2 kts | 226° |
| 2026-05-06 17:31 | 50.86648 | 7.12151 | 238 ft | 2 kts | 197° |
| 2026-05-06 17:31 | 50.86657 | 7.12157 | 238 ft | 1 kts | 166° |
| 2026-05-06 17:32 | 50.86661 | 7.12156 | 238 ft | 0 kts | 166° |
| 2026-05-06 17:36 | 50.86620 | 7.12172 | 238 ft | 9 kts | 166° |
| 2026-05-06 17:36 | 50.86556 | 7.12200 | 238 ft | 10 kts | 164° |
| 2026-05-06 17:36 | 50.86486 | 7.12232 | 238 ft | 11 kts | 164° |
| 2026-05-06 17:36 | 50.86403 | 7.12268 | 237 ft | 14 kts | 165° |
| 2026-05-06 17:37 | 50.86305 | 7.12308 | 238 ft | 14 kts | 166° |
| 2026-05-06 17:37 | 50.86218 | 7.12337 | 243 ft | 11 kts | 169° |
| 2026-05-06 17:37 | 50.86143 | 7.12360 | 246 ft | 10 kts | 169° |
| 2026-05-06 17:37 | 50.86085 | 7.12389 | 248 ft | 8 kts | 153° |
| 2026-05-06 17:38 | 50.86060 | 7.12465 | 250 ft | 8 kts | 98° |
| 2026-05-06 17:38 | 50.86085 | 7.12609 | 250 ft | 22 kts | 65° |
| 2026-05-06 17:38 | 50.86251 | 7.13157 | 251 ft | 96 kts | 64° |
| 2026-05-06 17:38 | 50.86650 | 7.14465 | 270 ft | 164 kts | 63° |
| 2026-05-06 17:39 | 50.87175 | 7.16167 | 852 ft | 174 kts | 60° |
| 2026-05-06 17:39 | 50.87737 | 7.17886 | 1769 ft | 177 kts | 60° |
| 2026-05-06 17:39 | 50.88316 | 7.19662 | 2541 ft | 188 kts | 60° |
| 2026-05-06 17:39 | 50.88963 | 7.21611 | 3009 ft | 211 kts | 60° |
| 2026-05-06 17:40 | 50.89640 | 7.23790 | 3552 ft | 232 kts | 62° |
| 2026-05-06 17:40 | 50.90367 | 7.26219 | 3970 ft | 255 kts | 63° |
| 2026-05-06 17:40 | 50.91158 | 7.28844 | 4475 ft | 270 kts | 64° |
| 2026-05-06 17:40 | 50.92028 | 7.31491 | 5295 ft | 271 kts | 51° |
| 2026-05-06 17:41 | 50.93457 | 7.33384 | 6144 ft | 271 kts | 24° |
| 2026-05-06 17:41 | 50.95291 | 7.33989 | 6905 ft | 272 kts | 356° |
| 2026-05-06 17:41 | 50.97121 | 7.33291 | 7581 ft | 274 kts | 338° |
| 2026-05-06 17:41 | 50.98896 | 7.32144 | 8283 ft | 276 kts | 336° |
| 2026-05-06 17:42 | 51.00641 | 7.30942 | 9013 ft | 278 kts | 336° |
| 2026-05-06 17:42 | 51.02428 | 7.29693 | 9730 ft | 283 kts | 336° |
| 2026-05-06 17:42 | 51.04240 | 7.28437 | 10316 ft | 291 kts | 338° |
| 2026-05-06 17:42 | 51.06242 | 7.27459 | 10530 ft | 312 kts | 346° |
| 2026-05-06 17:43 | 51.08434 | 7.26678 | 10746 ft | 332 kts | 346° |
| 2026-05-06 17:43 | 51.10710 | 7.25848 | 11369 ft | 338 kts | 346° |
| 2026-05-06 17:43 | 51.12999 | 7.25007 | 12174 ft | 337 kts | 346° |
| 2026-05-06 17:43 | 51.15324 | 7.24152 | 12839 ft | 344 kts | 346° |
| 2026-05-06 17:44 | 51.17655 | 7.23293 | 13528 ft | 349 kts | 346° |
| 2026-05-06 17:44 | 51.20038 | 7.22414 | 14171 ft | 353 kts | 346° |
| 2026-05-06 17:44 | 51.22416 | 7.21536 | 14832 ft | 356 kts | 345° |
| 2026-05-06 17:44 | 51.24840 | 7.20641 | 15476 ft | 360 kts | 345° |
| 2026-05-06 17:45 | 51.27294 | 7.19733 | 16123 ft | 363 kts | 346° |
| 2026-05-06 17:45 | 51.29769 | 7.18827 | 16754 ft | 367 kts | 348° |
| 2026-05-06 17:45 | 51.32338 | 7.18655 | 17353 ft | 374 kts | 6° |
| 2026-05-06 17:45 | 51.34852 | 7.19810 | 17969 ft | 381 kts | 25° |
| 2026-05-06 17:46 | 51.37152 | 7.21971 | 18544 ft | 386 kts | 31° |
| 2026-05-06 17:46 | 51.39437 | 7.24262 | 19110 ft | 389 kts | 31° |
| 2026-05-06 17:46 | 51.41737 | 7.26571 | 19694 ft | 392 kts | 31° |
| 2026-05-06 17:46 | 51.44061 | 7.28897 | 20295 ft | 396 kts | 31° |
| 2026-05-06 17:47 | 51.46414 | 7.31250 | 20723 ft | 401 kts | 31° |
| 2026-05-06 17:47 | 51.48783 | 7.33616 | 20853 ft | 402 kts | 31° |
| 2026-05-06 17:47 | 51.51198 | 7.36029 | 20869 ft | 415 kts | 31° |
| 2026-05-06 17:47 | 51.53646 | 7.38477 | 20869 ft | 413 kts | 31° |
| 2026-05-06 17:48 | 51.56081 | 7.40917 | 20858 ft | 412 kts | 31° |
| 2026-05-06 17:48 | 51.58515 | 7.43359 | 20864 ft | 413 kts | 31° |
| 2026-05-06 17:48 | 51.60926 | 7.45781 | 20864 ft | 415 kts | 31° |
| 2026-05-06 17:48 | 51.63375 | 7.48244 | 20867 ft | 414 kts | 31° |
| 2026-05-06 17:49 | 51.65808 | 7.50694 | 20862 ft | 413 kts | 31° |
| 2026-05-06 17:49 | 51.68249 | 7.53154 | 20862 ft | 414 kts | 31° |
| 2026-05-06 17:49 | 51.70685 | 7.55614 | 20863 ft | 413 kts | 31° |
| 2026-05-06 17:49 | 51.73127 | 7.58082 | 20860 ft | 414 kts | 31° |
| 2026-05-06 17:50 | 51.75561 | 7.60546 | 20864 ft | 413 kts | 31° |
| 2026-05-06 17:50 | 51.78000 | 7.63019 | 20864 ft | 414 kts | 31° |
| 2026-05-06 17:50 | 51.80437 | 7.65491 | 20870 ft | 413 kts | 31° |
| 2026-05-06 17:50 | 51.82881 | 7.67958 | 20866 ft | 414 kts | 29° |
| 2026-05-06 17:51 | 51.85477 | 7.69938 | 20871 ft | 412 kts | 18° |
| 2026-05-06 17:51 | 51.88233 | 7.71145 | 20870 ft | 410 kts | 8° |
| 2026-05-06 17:51 | 51.91065 | 7.71665 | 20871 ft | 409 kts | 4° |
| 2026-05-06 17:51 | 51.93895 | 7.72096 | 20875 ft | 409 kts | 4° |
| 2026-05-06 17:52 | 51.96736 | 7.72546 | 20877 ft | 409 kts | 4° |
| 2026-05-06 17:52 | 51.99566 | 7.72997 | 20876 ft | 409 kts | 4° |
| 2026-05-06 17:52 | 52.02363 | 7.73442 | 20876 ft | 409 kts | 4° |
| 2026-05-06 17:52 | 52.05194 | 7.73892 | 20884 ft | 409 kts | 4° |
| 2026-05-06 17:53 | 52.08023 | 7.74339 | 20886 ft | 408 kts | 4° |
| 2026-05-06 17:53 | 52.10847 | 7.74785 | 20884 ft | 408 kts | 4° |
| 2026-05-06 17:53 | 52.13677 | 7.75232 | 20884 ft | 409 kts | 4° |
| 2026-05-06 17:53 | 52.16506 | 7.75680 | 20884 ft | 408 kts | 4° |
| 2026-05-06 17:54 | 52.19340 | 7.76130 | 20885 ft | 409 kts | 4° |
| 2026-05-06 17:54 | 52.22170 | 7.76579 | 20884 ft | 408 kts | 4° |
| 2026-05-06 17:54 | 52.25004 | 7.77030 | 20884 ft | 408 kts | 4° |
| 2026-05-06 17:54 | 52.27829 | 7.77482 | 20888 ft | 408 kts | 4° |
| 2026-05-06 17:55 | 52.30655 | 7.77934 | 20887 ft | 407 kts | 4° |
| 2026-05-06 17:55 | 52.33475 | 7.78360 | 20884 ft | 407 kts | 1° |
| 2026-05-06 17:55 | 52.36298 | 7.78326 | 20884 ft | 406 kts | 353° |
| 2026-05-06 17:55 | 52.39106 | 7.77849 | 20887 ft | 405 kts | 352° |
| 2026-05-06 17:56 | 52.41910 | 7.77383 | 20890 ft | 405 kts | 352° |
| 2026-05-06 17:56 | 52.44716 | 7.76931 | 20887 ft | 405 kts | 352° |
| 2026-05-06 17:56 | 52.47523 | 7.76478 | 20889 ft | 405 kts | 352° |
| 2026-05-06 17:56 | 52.50326 | 7.76021 | 20887 ft | 405 kts | 352° |
| 2026-05-06 17:57 | 52.53130 | 7.75561 | 20893 ft | 405 kts | 353° |
| 2026-05-06 17:57 | 52.55941 | 7.75281 | 20890 ft | 405 kts | 356° |
| 2026-05-06 17:57 | 52.58758 | 7.75101 | 20892 ft | 405 kts | 356° |
| 2026-05-06 17:57 | 52.61578 | 7.74908 | 20889 ft | 405 kts | 356° |
| 2026-05-06 17:58 | 52.64395 | 7.74712 | 20890 ft | 405 kts | 356° |
| 2026-05-06 17:58 | 52.67213 | 7.74516 | 20890 ft | 405 kts | 356° |
| 2026-05-06 17:58 | 52.70029 | 7.74321 | 20890 ft | 405 kts | 356° |
| 2026-05-06 17:58 | 52.72851 | 7.74126 | 20887 ft | 405 kts | 356° |
| 2026-05-06 17:59 | 52.75637 | 7.73934 | 20892 ft | 405 kts | 356° |
| 2026-05-06 17:59 | 52.78450 | 7.73740 | 20887 ft | 405 kts | 356° |
| 2026-05-06 17:59 | 52.81261 | 7.73546 | 20887 ft | 405 kts | 356° |
| 2026-05-06 17:59 | 52.84080 | 7.73352 | 20887 ft | 405 kts | 356° |
| 2026-05-06 18:00 | 52.86894 | 7.73157 | 20890 ft | 405 kts | 356° |
| 2026-05-06 18:00 | 52.89709 | 7.72962 | 20889 ft | 405 kts | 356° |
| 2026-05-06 18:00 | 52.92519 | 7.72767 | 20892 ft | 405 kts | 356° |
| 2026-05-06 18:00 | 52.95332 | 7.72572 | 20892 ft | 405 kts | 356° |
| 2026-05-06 18:01 | 52.98135 | 7.72174 | 20893 ft | 404 kts | 349° |
| 2026-05-06 18:01 | 53.00871 | 7.71183 | 20903 ft | 403 kts | 342° |
| 2026-05-06 18:01 | 53.03538 | 7.69748 | 20895 ft | 403 kts | 340° |
| 2026-05-06 18:01 | 53.06210 | 7.68312 | 20894 ft | 403 kts | 341° |
| 2026-05-06 18:02 | 53.08878 | 7.66893 | 20894 ft | 403 kts | 341° |
| 2026-05-06 18:02 | 53.11549 | 7.65472 | 20904 ft | 403 kts | 340° |
| 2026-05-06 18:02 | 53.14228 | 7.64055 | 20900 ft | 403 kts | 340° |
| 2026-05-06 18:02 | 53.16977 | 7.63096 | 20901 ft | 407 kts | 354° |
| 2026-05-06 18:03 | 53.19816 | 7.63389 | 20904 ft | 412 kts | 10° |
| 2026-05-06 18:03 | 53.22527 | 7.64951 | 20906 ft | 416 kts | 25° |
| 2026-05-06 18:03 | 53.24890 | 7.67646 | 20906 ft | 419 kts | 41° |
| 2026-05-06 18:03 | 53.26789 | 7.71327 | 20906 ft | 419 kts | 55° |
| 2026-05-06 18:04 | 53.28317 | 7.75433 | 20902 ft | 413 kts | 59° |
| 2026-05-06 18:04 | 53.29764 | 7.79578 | 20906 ft | 414 kts | 59° |
| 2026-05-06 18:04 | 53.31257 | 7.83711 | 20904 ft | 415 kts | 58° |
| 2026-05-06 18:04 | 53.32797 | 7.87794 | 20903 ft | 415 kts | 57° |
| 2026-05-06 18:05 | 53.34367 | 7.91839 | 20903 ft | 415 kts | 56° |
| 2026-05-06 18:05 | 53.35957 | 7.95880 | 20903 ft | 415 kts | 56° |
| 2026-05-06 18:05 | 53.37551 | 7.99916 | 20903 ft | 415 kts | 56° |
| 2026-05-06 18:05 | 53.39142 | 8.03946 | 20903 ft | 415 kts | 56° |
| 2026-05-06 18:06 | 53.40732 | 8.07983 | 20897 ft | 415 kts | 56° |
| 2026-05-06 18:06 | 53.42320 | 8.12023 | 20897 ft | 415 kts | 56° |
| 2026-05-06 18:06 | 53.43904 | 8.16062 | 20900 ft | 415 kts | 56° |
| 2026-05-06 18:06 | 53.44957 | 8.18749 | 20899 ft | 415 kts | 56° |
| 2026-05-06 18:07 | 53.46542 | 8.22804 | 20902 ft | 416 kts | 56° |
| 2026-05-06 18:07 | 53.48659 | 8.28227 | 20900 ft | 420 kts | 56° |
| 2026-05-06 18:07 | 53.50251 | 8.32313 | 20891 ft | 415 kts | 56° |
| 2026-05-06 18:07 | 53.51822 | 8.36354 | 20892 ft | 413 kts | 56° |
| 2026-05-06 18:08 | 53.52883 | 8.39084 | 20897 ft | 414 kts | 56° |
| 2026-05-06 18:08 | 53.54461 | 8.43151 | 20895 ft | 415 kts | 56° |
| 2026-05-06 18:08 | 53.56033 | 8.47209 | 20889 ft | 412 kts | 56° |
| 2026-05-06 18:08 | 53.57575 | 8.51198 | 20887 ft | 399 kts | 56° |
| 2026-05-06 18:09 | 53.59060 | 8.55047 | 20885 ft | 386 kts | 56° |
| 2026-05-06 18:09 | 53.60496 | 8.58773 | 20887 ft | 386 kts | 56° |
| 2026-05-06 18:09 | 53.61969 | 8.62599 | 20888 ft | 390 kts | 56° |
| 2026-05-06 18:09 | 53.63443 | 8.66432 | 20885 ft | 389 kts | 56° |
| 2026-05-06 18:10 | 53.64915 | 8.70267 | 20883 ft | 389 kts | 56° |
| 2026-05-06 18:10 | 53.66383 | 8.74099 | 20884 ft | 389 kts | 56° |
| 2026-05-06 18:10 | 53.67935 | 8.77822 | 20882 ft | 389 kts | 46° |
| 2026-05-06 18:10 | 53.70022 | 8.80725 | 20885 ft | 389 kts | 28° |
| 2026-05-06 18:11 | 53.72509 | 8.82407 | 20886 ft | 385 kts | 10° |
| 2026-05-06 18:11 | 53.75155 | 8.82716 | 20884 ft | 381 kts | 352° |
| 2026-05-06 18:11 | 53.77706 | 8.81626 | 20885 ft | 377 kts | 334° |
| 2026-05-06 18:11 | 53.79898 | 8.79261 | 20885 ft | 374 kts | 315° |
| 2026-05-06 18:12 | 53.81522 | 8.75881 | 20887 ft | 370 kts | 299° |
| 2026-05-06 18:12 | 53.82596 | 8.71942 | 20883 ft | 369 kts | 285° |
| 2026-05-06 18:12 | 53.82963 | 8.67673 | 20885 ft | 368 kts | 269° |
| 2026-05-06 18:12 | 53.82679 | 8.63384 | 20885 ft | 368 kts | 257° |
| 2026-05-06 18:13 | 53.81997 | 8.59218 | 20885 ft | 367 kts | 251° |
| 2026-05-06 18:13 | 53.81138 | 8.55218 | 20883 ft | 367 kts | 249° |
| 2026-05-06 18:13 | 53.80194 | 8.51202 | 20884 ft | 367 kts | 248° |
| 2026-05-06 18:13 | 53.79236 | 8.47195 | 20885 ft | 368 kts | 248° |
| 2026-05-06 18:14 | 53.78282 | 8.43188 | 20894 ft | 367 kts | 248° |
| 2026-05-06 18:14 | 53.77337 | 8.39175 | 20895 ft | 367 kts | 248° |
| 2026-05-06 18:14 | 53.76399 | 8.35161 | 20906 ft | 365 kts | 249° |
| 2026-05-06 18:14 | 53.75477 | 8.31196 | 20903 ft | 362 kts | 249° |
| 2026-05-06 18:15 | 53.74560 | 8.27242 | 20899 ft | 361 kts | 249° |
| 2026-05-06 18:15 | 53.73648 | 8.23303 | 20899 ft | 358 kts | 249° |
| 2026-05-06 18:15 | 53.72738 | 8.19371 | 20901 ft | 360 kts | 249° |
| 2026-05-06 18:15 | 53.71829 | 8.15437 | 20903 ft | 361 kts | 249° |
| 2026-05-06 18:16 | 53.70909 | 8.11450 | 20909 ft | 366 kts | 249° |
| 2026-05-06 18:16 | 53.69986 | 8.07439 | 20907 ft | 365 kts | 249° |
| 2026-05-06 18:16 | 53.69073 | 8.03455 | 20910 ft | 364 kts | 249° |
| 2026-05-06 18:16 | 53.68160 | 7.99464 | 20907 ft | 365 kts | 249° |
| 2026-05-06 18:17 | 53.67243 | 7.95456 | 20911 ft | 366 kts | 249° |
| 2026-05-06 18:17 | 53.66329 | 7.91462 | 20914 ft | 364 kts | 249° |
| 2026-05-06 18:17 | 53.65419 | 7.87482 | 20911 ft | 364 kts | 249° |
| 2026-05-06 18:17 | 53.64440 | 7.83597 | 20908 ft | 365 kts | 240° |
| 2026-05-06 18:18 | 53.62875 | 7.80206 | 20919 ft | 369 kts | 224° |
| 2026-05-06 18:18 | 53.60786 | 7.77745 | 20913 ft | 367 kts | 207° |
| 2026-05-06 18:18 | 53.58365 | 7.76407 | 20912 ft | 370 kts | 191° |
| 2026-05-06 18:18 | 53.55775 | 7.76300 | 20912 ft | 377 kts | 174° |
| 2026-05-06 18:19 | 53.53243 | 7.77501 | 20911 ft | 382 kts | 157° |
| 2026-05-06 18:19 | 53.51020 | 7.79942 | 20911 ft | 385 kts | 139° |
| 2026-05-06 18:19 | 53.49315 | 7.83444 | 20912 ft | 390 kts | 121° |
| 2026-05-06 18:19 | 53.48322 | 7.87662 | 20909 ft | 392 kts | 102° |
| 2026-05-06 18:20 | 53.48142 | 7.92207 | 20911 ft | 391 kts | 84° |
| 2026-05-06 18:20 | 53.48795 | 7.96625 | 20913 ft | 393 kts | 67° |
| 2026-05-06 18:20 | 53.49875 | 8.00872 | 20910 ft | 395 kts | 66° |
| 2026-05-06 18:20 | 53.50955 | 8.05105 | 20909 ft | 393 kts | 67° |
| 2026-05-06 18:21 | 53.51985 | 8.09360 | 20905 ft | 393 kts | 68° |
| 2026-05-06 18:21 | 53.52977 | 8.13649 | 20904 ft | 394 kts | 69° |
| 2026-05-06 18:21 | 53.53944 | 8.17943 | 20902 ft | 393 kts | 69° |
| 2026-05-06 18:21 | 53.54905 | 8.22262 | 20901 ft | 394 kts | 69° |
| 2026-05-06 18:22 | 53.55861 | 8.26568 | 20901 ft | 393 kts | 69° |
| 2026-05-06 18:22 | 53.56818 | 8.30872 | 20900 ft | 394 kts | 69° |
| 2026-05-06 18:22 | 53.57776 | 8.35180 | 20894 ft | 390 kts | 69° |
| 2026-05-06 18:22 | 53.58726 | 8.39435 | 20895 ft | 389 kts | 69° |
| 2026-05-06 18:23 | 53.59679 | 8.43700 | 20896 ft | 390 kts | 69° |
| 2026-05-06 18:23 | 53.60636 | 8.47973 | 20888 ft | 390 kts | 69° |
| 2026-05-06 18:23 | 53.61596 | 8.52249 | 20887 ft | 390 kts | 69° |
| 2026-05-06 18:23 | 53.62543 | 8.56463 | 20886 ft | 390 kts | 69° |
| 2026-05-06 18:24 | 53.63507 | 8.60744 | 20885 ft | 390 kts | 69° |
| 2026-05-06 18:24 | 53.64471 | 8.65021 | 20885 ft | 390 kts | 69° |
| 2026-05-06 18:24 | 53.65436 | 8.69295 | 20884 ft | 390 kts | 69° |
| 2026-05-06 18:24 | 53.66399 | 8.73554 | 20884 ft | 390 kts | 69° |
| 2026-05-06 18:25 | 53.67544 | 8.77703 | 20891 ft | 389 kts | 56° |
| 2026-05-06 18:25 | 53.69340 | 8.81107 | 20886 ft | 389 kts | 37° |
| 2026-05-06 18:25 | 53.71653 | 8.83413 | 20885 ft | 386 kts | 19° |
| 2026-05-06 18:25 | 53.74212 | 8.84397 | 20885 ft | 383 kts | 1° |
| 2026-05-06 18:26 | 53.76846 | 8.83995 | 20885 ft | 379 kts | 343° |
| 2026-05-06 18:26 | 53.79242 | 8.82241 | 20886 ft | 375 kts | 325° |
| 2026-05-06 18:26 | 53.81200 | 8.79376 | 20884 ft | 372 kts | 308° |
| 2026-05-06 18:26 | 53.82572 | 8.75701 | 20884 ft | 370 kts | 292° |
| 2026-05-06 18:27 | 53.83254 | 8.71524 | 20883 ft | 368 kts | 275° |
| 2026-05-06 18:27 | 53.83187 | 8.67204 | 20885 ft | 368 kts | 259° |
| 2026-05-06 18:27 | 53.82418 | 8.63055 | 20887 ft | 367 kts | 249° |
| 2026-05-06 18:27 | 53.81571 | 8.58983 | 20883 ft | 368 kts | 251° |
| 2026-05-06 18:28 | 53.80736 | 8.54893 | 20885 ft | 367 kts | 250° |
| 2026-05-06 18:28 | 53.79865 | 8.50830 | 20884 ft | 368 kts | 250° |
| 2026-05-06 18:28 | 53.78959 | 8.46783 | 20884 ft | 368 kts | 249° |
| 2026-05-06 18:28 | 53.78044 | 8.42804 | 20894 ft | 367 kts | 249° |
| 2026-05-06 18:29 | 53.77098 | 8.38734 | 20897 ft | 368 kts | 249° |
| 2026-05-06 18:29 | 53.76174 | 8.34765 | 20903 ft | 366 kts | 249° |
| 2026-05-06 18:29 | 53.75249 | 8.30792 | 20905 ft | 361 kts | 249° |
| 2026-05-06 18:29 | 53.74336 | 8.26860 | 20904 ft | 359 kts | 249° |
| 2026-05-06 18:30 | 53.73428 | 8.22942 | 20900 ft | 357 kts | 249° |
| 2026-05-06 18:30 | 53.72520 | 8.19015 | 20903 ft | 361 kts | 249° |
| 2026-05-06 18:30 | 53.71602 | 8.15034 | 20898 ft | 364 kts | 249° |
| 2026-05-06 18:30 | 53.70684 | 8.11052 | 20910 ft | 365 kts | 249° |
| 2026-05-06 18:31 | 53.69763 | 8.07049 | 20913 ft | 365 kts | 249° |
| 2026-05-06 18:31 | 53.68846 | 8.03056 | 20912 ft | 365 kts | 249° |
| 2026-05-06 18:31 | 53.67930 | 7.99064 | 20911 ft | 366 kts | 249° |
| 2026-05-06 18:31 | 53.67012 | 7.95055 | 20909 ft | 365 kts | 249° |
| 2026-05-06 18:32 | 53.66100 | 7.91068 | 20913 ft | 364 kts | 249° |
| 2026-05-06 18:32 | 53.65188 | 7.87076 | 20915 ft | 365 kts | 249° |
| 2026-05-06 18:32 | 53.64146 | 7.83177 | 20912 ft | 366 kts | 238° |
| 2026-05-06 18:32 | 53.62502 | 7.79911 | 20918 ft | 368 kts | 221° |
| 2026-05-06 18:33 | 53.60383 | 7.77627 | 20911 ft | 367 kts | 205° |
| 2026-05-06 18:33 | 53.57919 | 7.76452 | 20912 ft | 371 kts | 189° |
| 2026-05-06 18:33 | 53.55252 | 7.76562 | 20910 ft | 378 kts | 171° |
| 2026-05-06 18:33 | 53.52816 | 7.77951 | 20909 ft | 382 kts | 154° |
| 2026-05-06 18:34 | 53.50668 | 7.80584 | 20912 ft | 386 kts | 136° |
| 2026-05-06 18:34 | 53.49081 | 7.84225 | 20912 ft | 390 kts | 117° |
| 2026-05-06 18:34 | 53.48222 | 7.88542 | 20910 ft | 392 kts | 99° |
| 2026-05-06 18:34 | 53.48188 | 7.93102 | 20911 ft | 392 kts | 81° |
| 2026-05-06 18:35 | 53.48967 | 7.97479 | 20915 ft | 394 kts | 67° |
| 2026-05-06 18:35 | 53.50057 | 8.01706 | 20910 ft | 395 kts | 66° |
| 2026-05-06 18:35 | 53.51126 | 8.05882 | 20909 ft | 393 kts | 67° |
| 2026-05-06 18:35 | 53.52160 | 8.10147 | 20906 ft | 394 kts | 68° |
| 2026-05-06 18:36 | 53.53152 | 8.14440 | 20905 ft | 394 kts | 69° |
| 2026-05-06 18:36 | 53.54120 | 8.18743 | 20905 ft | 394 kts | 69° |
| 2026-05-06 18:36 | 53.55079 | 8.23056 | 20904 ft | 394 kts | 69° |
| 2026-05-06 18:36 | 53.56038 | 8.27374 | 20903 ft | 393 kts | 69° |
| 2026-05-06 18:37 | 53.56997 | 8.31688 | 20896 ft | 394 kts | 69° |
| 2026-05-06 18:37 | 53.57634 | 8.34546 | 20896 ft | 390 kts | 69° |
| 2026-05-06 18:37 | 53.58905 | 8.40245 | 20898 ft | 389 kts | 69° |
| 2026-05-06 18:37 | 53.59859 | 8.44508 | 20890 ft | 390 kts | 69° |
| 2026-05-06 18:38 | 53.60817 | 8.48781 | 20890 ft | 390 kts | 69° |
| 2026-05-06 18:38 | 53.61763 | 8.52996 | 20888 ft | 390 kts | 69° |
| 2026-05-06 18:38 | 53.62720 | 8.57253 | 20886 ft | 390 kts | 69° |
| 2026-05-06 18:38 | 53.63684 | 8.61536 | 20886 ft | 390 kts | 69° |
| 2026-05-06 18:39 | 53.64646 | 8.65805 | 20885 ft | 390 kts | 69° |
| 2026-05-06 18:39 | 53.65611 | 8.70083 | 20885 ft | 390 kts | 69° |
| 2026-05-06 18:39 | 53.66578 | 8.74354 | 20885 ft | 390 kts | 68° |
| 2026-05-06 18:40 | 53.69747 | 8.81616 | 20886 ft | 389 kts | 34° |
| 2026-05-06 18:40 | 53.72134 | 8.83672 | 20885 ft | 385 kts | 15° |
| 2026-05-06 18:40 | 53.74758 | 8.84381 | 20885 ft | 382 kts | 357° |
| 2026-05-06 18:40 | 53.77327 | 8.83699 | 20886 ft | 378 kts | 339° |
| 2026-05-06 18:41 | 53.79659 | 8.81711 | 20885 ft | 375 kts | 322° |
| 2026-05-06 18:41 | 53.81523 | 8.78668 | 20885 ft | 372 kts | 305° |
| 2026-05-06 18:41 | 53.82768 | 8.74873 | 20884 ft | 370 kts | 289° |
| 2026-05-06 18:41 | 53.83303 | 8.70630 | 20885 ft | 368 kts | 272° |
| 2026-05-06 18:42 | 53.83081 | 8.66328 | 20882 ft | 368 kts | 255° |
| 2026-05-06 18:42 | 53.82241 | 8.62237 | 20883 ft | 368 kts | 250° |
| 2026-05-06 18:42 | 53.81403 | 8.58145 | 20883 ft | 368 kts | 251° |
| 2026-05-06 18:42 | 53.80563 | 8.54062 | 20884 ft | 368 kts | 250° |
| 2026-05-06 18:43 | 53.79682 | 8.49994 | 20883 ft | 368 kts | 249° |
| 2026-05-06 18:43 | 53.78770 | 8.45952 | 20885 ft | 368 kts | 249° |
| 2026-05-06 18:43 | 53.77840 | 8.41920 | 20903 ft | 368 kts | 249° |
| 2026-05-06 18:43 | 53.76914 | 8.37939 | 20900 ft | 368 kts | 249° |
| 2026-05-06 18:44 | 53.75980 | 8.33927 | 20905 ft | 365 kts | 249° |
| 2026-05-06 18:44 | 53.75059 | 8.29969 | 20900 ft | 358 kts | 249° |
| 2026-05-06 18:44 | 53.74152 | 8.26063 | 20904 ft | 357 kts | 249° |
| 2026-05-06 18:44 | 53.73243 | 8.22139 | 20905 ft | 361 kts | 249° |
| 2026-05-06 18:45 | 53.72330 | 8.18185 | 20906 ft | 363 kts | 249° |
| 2026-05-06 18:45 | 53.71412 | 8.14207 | 20906 ft | 364 kts | 249° |
| 2026-05-06 18:45 | 53.70506 | 8.10271 | 20911 ft | 365 kts | 249° |
| 2026-05-06 18:45 | 53.69884 | 8.07568 | 20912 ft | 365 kts | 249° |
| 2026-05-06 18:46 | 53.68663 | 8.02250 | 20911 ft | 365 kts | 249° |
| 2026-05-06 18:46 | 53.67748 | 7.98263 | 20911 ft | 365 kts | 249° |
| 2026-05-06 18:46 | 53.66833 | 7.94265 | 20911 ft | 365 kts | 249° |
| 2026-05-06 18:46 | 53.65920 | 7.90273 | 20917 ft | 364 kts | 249° |
| 2026-05-06 18:47 | 53.65009 | 7.86285 | 20912 ft | 365 kts | 249° |
| 2026-05-06 18:47 | 53.63887 | 7.82507 | 20914 ft | 366 kts | 235° |
| 2026-05-06 18:47 | 53.62132 | 7.79397 | 20918 ft | 367 kts | 219° |
| 2026-05-06 18:47 | 53.59910 | 7.77293 | 20911 ft | 368 kts | 202° |
| 2026-05-06 18:48 | 53.57388 | 7.76361 | 20911 ft | 373 kts | 185° |
| 2026-05-06 18:48 | 53.54813 | 7.76713 | 20912 ft | 379 kts | 168° |
| 2026-05-06 18:48 | 53.52361 | 7.78376 | 20908 ft | 383 kts | 150° |
| 2026-05-06 18:48 | 53.50304 | 7.81232 | 20912 ft | 387 kts | 132° |
| 2026-05-06 18:49 | 53.48848 | 7.85045 | 20914 ft | 390 kts | 114° |
| 2026-05-06 18:49 | 53.48149 | 7.89460 | 20910 ft | 391 kts | 95° |
| 2026-05-06 18:49 | 53.48287 | 7.94008 | 20906 ft | 392 kts | 77° |
| 2026-05-06 18:49 | 53.49187 | 7.98337 | 20913 ft | 394 kts | 66° |
| 2026-05-06 18:50 | 53.50283 | 8.02555 | 20913 ft | 395 kts | 66° |
| 2026-05-06 18:50 | 53.51356 | 8.06798 | 20912 ft | 393 kts | 67° |
| 2026-05-06 18:50 | 53.52363 | 8.11007 | 20906 ft | 394 kts | 68° |
| 2026-05-06 18:50 | 53.53349 | 8.15308 | 20905 ft | 394 kts | 69° |
| 2026-05-06 18:51 | 53.54315 | 8.19615 | 20906 ft | 393 kts | 69° |
| 2026-05-06 18:51 | 53.55273 | 8.23925 | 20906 ft | 394 kts | 69° |
| 2026-05-06 18:51 | 53.56230 | 8.28237 | 20906 ft | 393 kts | 69° |
| 2026-05-06 18:51 | 53.57189 | 8.32551 | 20898 ft | 393 kts | 69° |
| 2026-05-06 18:52 | 53.58143 | 8.36832 | 20897 ft | 389 kts | 69° |
| 2026-05-06 18:52 | 53.59094 | 8.41091 | 20898 ft | 389 kts | 69° |
| 2026-05-06 18:52 | 53.60049 | 8.45358 | 20890 ft | 390 kts | 69° |
| 2026-05-06 18:52 | 53.61007 | 8.49631 | 20889 ft | 390 kts | 69° |
| 2026-05-06 18:53 | 53.61958 | 8.53865 | 20887 ft | 390 kts | 69° |
| 2026-05-06 18:53 | 53.62926 | 8.58167 | 20886 ft | 390 kts | 69° |
| 2026-05-06 18:53 | 53.63888 | 8.62441 | 20886 ft | 390 kts | 69° |
| 2026-05-06 18:53 | 53.64852 | 8.66712 | 20885 ft | 390 kts | 69° |
| 2026-05-06 18:54 | 53.65816 | 8.70979 | 20885 ft | 390 kts | 68° |
| 2026-05-06 18:54 | 53.66773 | 8.75182 | 20884 ft | 389 kts | 66° |
| 2026-05-06 18:54 | 53.68154 | 8.79090 | 20888 ft | 389 kts | 49° |
| 2026-05-06 18:54 | 53.70176 | 8.82095 | 20885 ft | 388 kts | 30° |
| 2026-05-06 18:55 | 53.72629 | 8.83897 | 20885 ft | 384 kts | 12° |
| 2026-05-06 18:55 | 53.75274 | 8.84327 | 20885 ft | 381 kts | 354° |
| 2026-05-06 18:55 | 53.77838 | 8.83355 | 20885 ft | 377 kts | 336° |
| 2026-05-06 18:55 | 53.80090 | 8.81135 | 20885 ft | 374 kts | 319° |
| 2026-05-06 18:56 | 53.81842 | 8.77912 | 20884 ft | 372 kts | 302° |
| 2026-05-06 18:56 | 53.82946 | 8.73996 | 20884 ft | 369 kts | 285° |
| 2026-05-06 18:56 | 53.83322 | 8.69716 | 20884 ft | 368 kts | 269° |
| 2026-05-06 18:56 | 53.82943 | 8.65451 | 20884 ft | 368 kts | 252° |
| 2026-05-06 18:57 | 53.82075 | 8.61432 | 20885 ft | 368 kts | 251° |
| 2026-05-06 18:57 | 53.81243 | 8.57338 | 20883 ft | 368 kts | 251° |
| 2026-05-06 18:57 | 53.80393 | 8.53245 | 20883 ft | 368 kts | 250° |
| 2026-05-06 18:57 | 53.79505 | 8.49181 | 20884 ft | 368 kts | 249° |
| 2026-05-06 18:58 | 53.78588 | 8.45141 | 20886 ft | 368 kts | 249° |
| 2026-05-06 18:58 | 53.77654 | 8.41102 | 20900 ft | 368 kts | 249° |
| 2026-05-06 18:58 | 53.76716 | 8.37069 | 20900 ft | 368 kts | 249° |
| 2026-05-06 18:58 | 53.75784 | 8.33069 | 20908 ft | 362 kts | 249° |
| 2026-05-06 18:59 | 53.74872 | 8.29151 | 20906 ft | 355 kts | 249° |
| 2026-05-06 18:59 | 53.74275 | 8.26580 | 20905 ft | 356 kts | 249° |
| 2026-05-06 18:59 | 53.73364 | 8.22648 | 20907 ft | 361 kts | 249° |
| 2026-05-06 18:59 | 53.72152 | 8.17398 | 20906 ft | 363 kts | 249° |
| 2026-05-06 19:00 | 53.71240 | 8.13445 | 20915 ft | 362 kts | 249° |
| 2026-05-06 19:00 | 53.70322 | 8.09454 | 20915 ft | 365 kts | 249° |
| 2026-05-06 19:00 | 53.69405 | 8.05464 | 20914 ft | 365 kts | 249° |
| 2026-05-06 19:00 | 53.68785 | 8.02768 | 20914 ft | 365 kts | 249° |
| 2026-05-06 19:01 | 53.67870 | 7.98779 | 20915 ft | 365 kts | 249° |
| 2026-05-06 19:01 | 53.66958 | 7.94795 | 20912 ft | 365 kts | 249° |
| 2026-05-06 19:01 | 53.66044 | 7.90803 | 20915 ft | 365 kts | 249° |
| 2026-05-06 19:01 | 53.65145 | 7.86864 | 20914 ft | 365 kts | 249° |
| 2026-05-06 19:02 | 53.64082 | 7.82990 | 20912 ft | 365 kts | 237° |
| 2026-05-06 19:02 | 53.62403 | 7.79761 | 20922 ft | 367 kts | 221° |
| 2026-05-06 19:02 | 53.60236 | 7.77509 | 20911 ft | 368 kts | 204° |
| 2026-05-06 19:02 | 53.57753 | 7.76409 | 20912 ft | 373 kts | 187° |
| 2026-05-06 19:03 | 53.55155 | 7.76586 | 20910 ft | 378 kts | 171° |
| 2026-05-06 19:03 | 53.52667 | 7.78080 | 20906 ft | 383 kts | 152° |
| 2026-05-06 19:03 | 53.50547 | 7.80794 | 20911 ft | 386 kts | 134° |
| 2026-05-06 19:03 | 53.49004 | 7.84499 | 20913 ft | 390 kts | 116° |
| 2026-05-06 19:04 | 53.48184 | 7.89087 | 20910 ft | 391 kts | 97° |
| 2026-05-06 19:04 | 53.48236 | 7.93394 | 20915 ft | 392 kts | 79° |
| 2026-05-06 19:04 | 53.49065 | 7.97749 | 20917 ft | 394 kts | 66° |
| 2026-05-06 19:04 | 53.50140 | 8.01926 | 20912 ft | 394 kts | 66° |
| 2026-05-06 19:05 | 53.51212 | 8.06166 | 20912 ft | 394 kts | 67° |
| 2026-05-06 19:05 | 53.52233 | 8.10425 | 20907 ft | 394 kts | 68° |
| 2026-05-06 19:05 | 53.53222 | 8.14731 | 20907 ft | 394 kts | 69° |
| 2026-05-06 19:05 | 53.54189 | 8.19043 | 20906 ft | 394 kts | 69° |
| 2026-05-06 19:06 | 53.55147 | 8.23356 | 20906 ft | 394 kts | 69° |
| 2026-05-06 19:06 | 53.56104 | 8.27669 | 20905 ft | 394 kts | 69° |
| 2026-05-06 19:06 | 53.57062 | 8.31979 | 20896 ft | 393 kts | 69° |
| 2026-05-06 19:06 | 53.58018 | 8.36277 | 20900 ft | 389 kts | 69° |
| 2026-05-06 19:07 | 53.58967 | 8.40531 | 20902 ft | 389 kts | 69° |
| 2026-05-06 19:07 | 53.59922 | 8.44801 | 20891 ft | 390 kts | 69° |
| 2026-05-06 19:07 | 53.60881 | 8.49081 | 20890 ft | 390 kts | 69° |
| 2026-05-06 19:07 | 53.61840 | 8.53351 | 20888 ft | 390 kts | 69° |
| 2026-05-06 19:08 | 53.62800 | 8.57617 | 20886 ft | 390 kts | 69° |
| 2026-05-06 19:08 | 53.63750 | 8.61835 | 20886 ft | 390 kts | 69° |
| 2026-05-06 19:08 | 53.64713 | 8.66106 | 20885 ft | 390 kts | 69° |
| 2026-05-06 19:08 | 53.65678 | 8.70378 | 20885 ft | 390 kts | 69° |
| 2026-05-06 19:09 | 53.66647 | 8.74653 | 20885 ft | 390 kts | 68° |
| 2026-05-06 19:09 | 53.67936 | 8.78639 | 20890 ft | 389 kts | 51° |
| 2026-05-06 19:09 | 53.69885 | 8.81783 | 20886 ft | 388 kts | 33° |
| 2026-05-06 19:09 | 53.72302 | 8.83763 | 20886 ft | 385 kts | 14° |
| 2026-05-06 19:10 | 53.74930 | 8.84380 | 20884 ft | 381 kts | 356° |
| 2026-05-06 19:10 | 53.77520 | 8.83591 | 20886 ft | 378 kts | 338° |
| 2026-05-06 19:10 | 53.79825 | 8.81514 | 20884 ft | 375 kts | 321° |
| 2026-05-06 19:10 | 53.81644 | 8.78413 | 20883 ft | 372 kts | 304° |
| 2026-05-06 19:11 | 53.82842 | 8.74565 | 20883 ft | 370 kts | 287° |
| 2026-05-06 19:11 | 53.83321 | 8.70316 | 20884 ft | 368 kts | 271° |
| 2026-05-06 19:11 | 53.83054 | 8.66082 | 20884 ft | 368 kts | 255° |
| 2026-05-06 19:11 | 53.82201 | 8.62005 | 20883 ft | 368 kts | 250° |
| 2026-05-06 19:12 | 53.81366 | 8.57912 | 20883 ft | 368 kts | 251° |
| 2026-05-06 19:12 | 53.80522 | 8.53822 | 20885 ft | 368 kts | 250° |
| 2026-05-06 19:12 | 53.79640 | 8.49762 | 20883 ft | 368 kts | 249° |
| 2026-05-06 19:12 | 53.78727 | 8.45721 | 20885 ft | 368 kts | 249° |
| 2026-05-06 19:13 | 53.77796 | 8.41688 | 20900 ft | 368 kts | 249° |
| 2026-05-06 19:13 | 53.76861 | 8.37669 | 20900 ft | 368 kts | 249° |
| 2026-05-06 19:13 | 53.75928 | 8.33664 | 20906 ft | 363 kts | 249° |
| 2026-05-06 19:13 | 53.75011 | 8.29724 | 20903 ft | 357 kts | 249° |
| 2026-05-06 19:14 | 53.74105 | 8.25819 | 20907 ft | 359 kts | 249° |
| 2026-05-06 19:14 | 53.73191 | 8.21872 | 20906 ft | 363 kts | 249° |
| 2026-05-06 19:14 | 53.72272 | 8.17898 | 20906 ft | 362 kts | 249° |
| 2026-05-06 19:14 | 53.71361 | 8.13944 | 20908 ft | 362 kts | 249° |
| 2026-05-06 19:15 | 53.70442 | 8.09952 | 20915 ft | 366 kts | 249° |
| 2026-05-06 19:15 | 53.69523 | 8.05957 | 20912 ft | 365 kts | 249° |
| 2026-05-06 19:15 | 53.68605 | 8.01958 | 20912 ft | 365 kts | 249° |
| 2026-05-06 19:15 | 53.67691 | 7.97976 | 20911 ft | 365 kts | 249° |
| 2026-05-06 19:16 | 53.66776 | 7.93978 | 20912 ft | 365 kts | 249° |
| 2026-05-06 19:16 | 53.65862 | 7.89982 | 20914 ft | 365 kts | 249° |
| 2026-05-06 19:16 | 53.64950 | 7.85988 | 20913 ft | 365 kts | 249° |
| 2026-05-06 19:16 | 53.63774 | 7.82216 | 20914 ft | 366 kts | 233° |
| 2026-05-06 19:17 | 53.61983 | 7.79188 | 20915 ft | 367 kts | 217° |
| 2026-05-06 19:17 | 53.59727 | 7.77166 | 20911 ft | 369 kts | 201° |
| 2026-05-06 19:17 | 53.57206 | 7.76332 | 20909 ft | 374 kts | 184° |
| 2026-05-06 19:17 | 53.54606 | 7.76791 | 20912 ft | 379 kts | 167° |
| 2026-05-06 19:18 | 53.52184 | 7.78552 | 20910 ft | 383 kts | 149° |
| 2026-05-06 19:18 | 53.50190 | 7.81446 | 20912 ft | 387 kts | 131° |
| 2026-05-06 19:18 | 53.48779 | 7.85311 | 20915 ft | 391 kts | 112° |
| 2026-05-06 19:18 | 53.48136 | 7.89728 | 20911 ft | 391 kts | 94° |
| 2026-05-06 19:19 | 53.48328 | 7.94268 | 20910 ft | 393 kts | 76° |
| 2026-05-06 19:19 | 53.49257 | 7.98581 | 20914 ft | 394 kts | 66° |
| 2026-05-06 19:19 | 53.50352 | 8.02803 | 20912 ft | 394 kts | 66° |
| 2026-05-06 19:19 | 53.51418 | 8.07039 | 20913 ft | 393 kts | 67° |
| 2026-05-06 19:20 | 53.52434 | 8.11305 | 20907 ft | 394 kts | 68° |
| 2026-05-06 19:20 | 53.53416 | 8.15602 | 20907 ft | 394 kts | 69° |
| 2026-05-06 19:20 | 53.54380 | 8.19908 | 20906 ft | 394 kts | 69° |
| 2026-05-06 19:20 | 53.55338 | 8.24220 | 20906 ft | 394 kts | 69° |
| 2026-05-06 19:21 | 53.56297 | 8.28536 | 20903 ft | 394 kts | 69° |
| 2026-05-06 19:21 | 53.57244 | 8.32797 | 20899 ft | 392 kts | 69° |
| 2026-05-06 19:21 | 53.58198 | 8.37078 | 20900 ft | 389 kts | 69° |
| 2026-05-06 19:21 | 53.59151 | 8.41343 | 20900 ft | 390 kts | 69° |
| 2026-05-06 19:22 | 53.60109 | 8.45623 | 20890 ft | 390 kts | 69° |
| 2026-05-06 19:22 | 53.61066 | 8.49891 | 20888 ft | 390 kts | 69° |
| 2026-05-06 19:22 | 53.62027 | 8.54171 | 20887 ft | 390 kts | 69° |
| 2026-05-06 19:22 | 53.62987 | 8.58439 | 20886 ft | 390 kts | 69° |
| 2026-05-06 19:23 | 53.63952 | 8.62724 | 20885 ft | 390 kts | 69° |
| 2026-05-06 19:23 | 53.64918 | 8.67002 | 20885 ft | 390 kts | 69° |
| 2026-05-06 19:23 | 53.65883 | 8.71275 | 20884 ft | 390 kts | 69° |
| 2026-05-06 19:23 | 53.66861 | 8.75535 | 20883 ft | 390 kts | 65° |
| 2026-05-06 19:24 | 53.68301 | 8.79390 | 20886 ft | 390 kts | 47° |
| 2026-05-06 19:24 | 53.70369 | 8.82314 | 20884 ft | 388 kts | 28° |
| 2026-05-06 19:24 | 53.72847 | 8.84016 | 20885 ft | 385 kts | 11° |
| 2026-05-06 19:24 | 53.75460 | 8.84346 | 20885 ft | 381 kts | 352° |
| 2026-05-06 19:25 | 53.78010 | 8.83291 | 20885 ft | 377 kts | 334° |
| 2026-05-06 19:25 | 53.80230 | 8.80990 | 20885 ft | 374 kts | 317° |
| 2026-05-06 19:25 | 53.81938 | 8.77715 | 20884 ft | 371 kts | 301° |
| 2026-05-06 19:25 | 53.83000 | 8.73763 | 20884 ft | 369 kts | 284° |
| 2026-05-06 19:26 | 53.83334 | 8.69481 | 20884 ft | 368 kts | 268° |
| 2026-05-06 19:26 | 53.82915 | 8.65231 | 20883 ft | 368 kts | 251° |
| 2026-05-06 19:26 | 53.82032 | 8.61169 | 20886 ft | 368 kts | 251° |
| 2026-05-06 19:26 | 53.81202 | 8.57077 | 20883 ft | 368 kts | 251° |
| 2026-05-06 19:27 | 53.80352 | 8.52994 | 20883 ft | 367 kts | 250° |
| 2026-05-06 19:27 | 53.79464 | 8.48941 | 20884 ft | 367 kts | 249° |
| 2026-05-06 19:27 | 53.78547 | 8.44905 | 20888 ft | 367 kts | 249° |
| 2026-05-06 19:27 | 53.77615 | 8.40877 | 20900 ft | 367 kts | 249° |
| 2026-05-06 19:28 | 53.76678 | 8.36852 | 20915 ft | 367 kts | 249° |
| 2026-05-06 19:28 | 53.75760 | 8.32911 | 20909 ft | 362 kts | 249° |
| 2026-05-06 19:28 | 53.74849 | 8.28994 | 20906 ft | 357 kts | 249° |
| 2026-05-06 19:28 | 53.73939 | 8.25071 | 20905 ft | 360 kts | 249° |
| 2026-05-06 19:29 | 53.73023 | 8.21115 | 20903 ft | 363 kts | 249° |
| 2026-05-06 19:29 | 53.72106 | 8.17145 | 20903 ft | 361 kts | 249° |
| 2026-05-06 19:29 | 53.71195 | 8.13191 | 20913 ft | 362 kts | 249° |
| 2026-05-06 19:29 | 53.70275 | 8.09193 | 20915 ft | 366 kts | 249° |
| 2026-05-06 19:30 | 53.69356 | 8.05195 | 20911 ft | 365 kts | 249° |
| 2026-05-06 19:30 | 53.68451 | 8.01251 | 20912 ft | 364 kts | 249° |
| 2026-05-06 19:30 | 53.67537 | 7.97264 | 20911 ft | 365 kts | 249° |
| 2026-05-06 19:30 | 53.66622 | 7.93270 | 20911 ft | 365 kts | 249° |
| 2026-05-06 19:31 | 53.65710 | 7.89279 | 20915 ft | 365 kts | 249° |
| 2026-05-06 19:31 | 53.64795 | 7.85289 | 20912 ft | 364 kts | 248° |
| 2026-05-06 19:31 | 53.61613 | 7.78739 | 20912 ft | 368 kts | 214° |
| 2026-05-06 19:32 | 53.59299 | 7.76919 | 20939 ft | 370 kts | 198° |
| 2026-05-06 19:32 | 53.56742 | 7.76308 | 20939 ft | 375 kts | 181° |
| 2026-05-06 19:32 | 53.54190 | 7.76985 | 20939 ft | 380 kts | 164° |
| 2026-05-06 19:32 | 53.51813 | 7.78959 | 20938 ft | 384 kts | 146° |
| 2026-05-06 19:33 | 53.49888 | 7.82070 | 20938 ft | 388 kts | 128° |
| 2026-05-06 19:33 | 53.48605 | 7.86066 | 20938 ft | 391 kts | 109° |
| 2026-05-06 19:33 | 53.48107 | 7.90562 | 20930 ft | 392 kts | 91° |
| 2026-05-06 19:33 | 53.48454 | 7.95096 | 20928 ft | 393 kts | 72° |
| 2026-05-06 19:34 | 53.49455 | 7.99369 | 20927 ft | 394 kts | 66° |
| 2026-05-06 19:34 | 53.50551 | 8.03592 | 20925 ft | 394 kts | 66° |
| 2026-05-06 19:34 | 53.51609 | 8.07833 | 20922 ft | 394 kts | 68° |
| 2026-05-06 19:34 | 53.52607 | 8.12058 | 20916 ft | 394 kts | 68° |
| 2026-05-06 19:35 | 53.53586 | 8.16357 | 20911 ft | 394 kts | 69° |
| 2026-05-06 19:35 | 53.54547 | 8.20659 | 20908 ft | 394 kts | 69° |
| 2026-05-06 19:35 | 53.55506 | 8.24973 | 20904 ft | 394 kts | 69° |
| 2026-05-06 19:35 | 53.56465 | 8.29291 | 20900 ft | 394 kts | 69° |
| 2026-05-06 19:36 | 53.57422 | 8.33592 | 20895 ft | 392 kts | 69° |
| 2026-05-06 19:36 | 53.58376 | 8.37874 | 20897 ft | 389 kts | 69° |
| 2026-05-06 19:36 | 53.59330 | 8.42141 | 20898 ft | 390 kts | 69° |
| 2026-05-06 19:36 | 53.60287 | 8.46417 | 20906 ft | 391 kts | 69° |
| 2026-05-06 19:37 | 53.61250 | 8.50710 | 20907 ft | 391 kts | 69° |
| 2026-05-06 19:37 | 53.62211 | 8.54989 | 20906 ft | 390 kts | 69° |
| 2026-05-06 19:37 | 53.63173 | 8.59263 | 20907 ft | 391 kts | 69° |
| 2026-05-06 19:37 | 53.63811 | 8.62098 | 20909 ft | 391 kts | 69° |
| 2026-05-06 19:38 | 53.65091 | 8.67768 | 20909 ft | 391 kts | 69° |
| 2026-05-06 19:38 | 53.66059 | 8.72049 | 20909 ft | 391 kts | 69° |
| 2026-05-06 19:38 | 53.67069 | 8.76289 | 20905 ft | 390 kts | 62° |
| 2026-05-06 19:38 | 53.68637 | 8.80007 | 20911 ft | 390 kts | 44° |
| 2026-05-06 19:39 | 53.70806 | 8.82739 | 20910 ft | 388 kts | 25° |
| 2026-05-06 19:39 | 53.73339 | 8.84200 | 20910 ft | 384 kts | 7° |
| 2026-05-06 19:39 | 53.75987 | 8.84267 | 20911 ft | 381 kts | 349° |
| 2026-05-06 19:39 | 53.78492 | 8.82951 | 20911 ft | 377 kts | 331° |
| 2026-05-06 19:40 | 53.80625 | 8.80437 | 20911 ft | 373 kts | 314° |
| 2026-05-06 19:40 | 53.82218 | 8.77006 | 20911 ft | 370 kts | 297° |
| 2026-05-06 19:40 | 53.83144 | 8.72970 | 20911 ft | 368 kts | 281° |
| 2026-05-06 19:40 | 53.83339 | 8.68722 | 20911 ft | 367 kts | 265° |
| 2026-05-06 19:41 | 53.82796 | 8.64526 | 20911 ft | 367 kts | 249° |
| 2026-05-06 19:41 | 53.81912 | 8.60452 | 20911 ft | 367 kts | 251° |
| 2026-05-06 19:41 | 53.81084 | 8.56359 | 20913 ft | 367 kts | 251° |
| 2026-05-06 19:41 | 53.80226 | 8.52289 | 20910 ft | 367 kts | 249° |
| 2026-05-06 19:42 | 53.78971 | 8.48549 | 20912 ft | 368 kts | 231° |
| 2026-05-06 19:42 | 53.77057 | 8.45680 | 20911 ft | 370 kts | 213° |
| 2026-05-06 19:42 | 53.74807 | 8.43559 | 20902 ft | 371 kts | 208° |
| 2026-05-06 19:42 | 53.72503 | 8.41604 | 20900 ft | 371 kts | 208° |
| 2026-05-06 19:43 | 53.70210 | 8.39611 | 20897 ft | 371 kts | 209° |
| 2026-05-06 19:43 | 53.67933 | 8.37543 | 20897 ft | 372 kts | 210° |
| 2026-05-06 19:43 | 53.65671 | 8.35422 | 20897 ft | 372 kts | 211° |
| 2026-05-06 19:43 | 53.63416 | 8.33275 | 20897 ft | 372 kts | 211° |
| 2026-05-06 19:44 | 53.61173 | 8.31128 | 20902 ft | 369 kts | 211° |
| 2026-05-06 19:44 | 53.58975 | 8.29022 | 20904 ft | 368 kts | 211° |
| 2026-05-06 19:44 | 53.56748 | 8.26890 | 20903 ft | 369 kts | 211° |
| 2026-05-06 19:44 | 53.54475 | 8.24716 | 20911 ft | 386 kts | 211° |
| 2026-05-06 19:45 | 53.52094 | 8.22442 | 20906 ft | 396 kts | 211° |
| 2026-05-06 19:45 | 53.49701 | 8.20165 | 20907 ft | 394 kts | 211° |
| 2026-05-06 19:45 | 53.47311 | 8.17894 | 20909 ft | 394 kts | 211° |
| 2026-05-06 19:45 | 53.44925 | 8.15627 | 20905 ft | 395 kts | 211° |
| 2026-05-06 19:46 | 53.42531 | 8.13355 | 20903 ft | 395 kts | 211° |
| 2026-05-06 19:46 | 53.40139 | 8.11088 | 20903 ft | 395 kts | 211° |
| 2026-05-06 19:46 | 53.37743 | 8.08822 | 20903 ft | 395 kts | 210° |
| 2026-05-06 19:46 | 53.35350 | 8.06560 | 20903 ft | 395 kts | 210° |
| 2026-05-06 19:47 | 53.32954 | 8.04299 | 20906 ft | 395 kts | 210° |
| 2026-05-06 19:47 | 53.30558 | 8.02041 | 20908 ft | 395 kts | 210° |
| 2026-05-06 19:47 | 53.28155 | 7.99780 | 20908 ft | 395 kts | 210° |
| 2026-05-06 19:47 | 53.25793 | 7.97559 | 20908 ft | 395 kts | 210° |
| 2026-05-06 19:48 | 53.23395 | 7.95309 | 20909 ft | 395 kts | 210° |
| 2026-05-06 19:48 | 53.20999 | 7.93062 | 20909 ft | 395 kts | 210° |
| 2026-05-06 19:48 | 53.18606 | 7.90822 | 20909 ft | 395 kts | 210° |
| 2026-05-06 19:48 | 53.16205 | 7.88577 | 20908 ft | 395 kts | 210° |
| 2026-05-06 19:49 | 53.13807 | 7.86338 | 20908 ft | 395 kts | 210° |
| 2026-05-06 19:49 | 53.11407 | 7.84099 | 20909 ft | 395 kts | 210° |
| 2026-05-06 19:49 | 53.09012 | 7.81869 | 20909 ft | 395 kts | 210° |
| 2026-05-06 19:49 | 53.06609 | 7.79633 | 20909 ft | 395 kts | 210° |
| 2026-05-06 19:50 | 53.04211 | 7.77407 | 20905 ft | 395 kts | 210° |
| 2026-05-06 19:50 | 53.01810 | 7.75190 | 20905 ft | 395 kts | 208° |
| 2026-05-06 19:50 | 52.99257 | 7.73471 | 20897 ft | 397 kts | 197° |
| 2026-05-06 19:50 | 52.96537 | 7.72626 | 20906 ft | 400 kts | 186° |
| 2026-05-06 19:51 | 52.93750 | 7.72645 | 20911 ft | 401 kts | 179° |
| 2026-05-06 19:51 | 52.90964 | 7.72865 | 20908 ft | 401 kts | 179° |
| 2026-05-06 19:51 | 52.88180 | 7.73070 | 20908 ft | 401 kts | 179° |
| 2026-05-06 19:51 | 52.85391 | 7.73267 | 20908 ft | 401 kts | 179° |
| 2026-05-06 19:52 | 52.82642 | 7.73457 | 20908 ft | 401 kts | 179° |
| 2026-05-06 19:52 | 52.79854 | 7.73649 | 20908 ft | 401 kts | 179° |
| 2026-05-06 19:52 | 52.77065 | 7.73841 | 20908 ft | 401 kts | 179° |
| 2026-05-06 19:52 | 52.74284 | 7.74032 | 20906 ft | 401 kts | 179° |
| 2026-05-06 19:53 | 52.71497 | 7.74224 | 20905 ft | 400 kts | 179° |
| 2026-05-06 19:53 | 52.68713 | 7.74415 | 20905 ft | 400 kts | 179° |
| 2026-05-06 19:53 | 52.65927 | 7.74606 | 20906 ft | 400 kts | 179° |
| 2026-05-06 19:53 | 52.63143 | 7.74796 | 20906 ft | 400 kts | 179° |
| 2026-05-06 19:54 | 52.60364 | 7.74987 | 20905 ft | 400 kts | 179° |
| 2026-05-06 19:54 | 52.58517 | 7.75113 | 20905 ft | 400 kts | 179° |
| 2026-05-06 19:54 | 52.55730 | 7.75303 | 20906 ft | 400 kts | 179° |
| 2026-05-06 19:54 | 52.52950 | 7.75574 | 20906 ft | 401 kts | 176° |
| 2026-05-06 19:55 | 52.50172 | 7.76038 | 20899 ft | 401 kts | 176° |
| 2026-05-06 19:55 | 52.47389 | 7.76503 | 20906 ft | 402 kts | 176° |
| 2026-05-06 19:55 | 52.44606 | 7.76965 | 20906 ft | 402 kts | 176° |
| 2026-05-06 19:55 | 52.41826 | 7.77423 | 20903 ft | 402 kts | 176° |
| 2026-05-06 19:56 | 52.39046 | 7.77879 | 20902 ft | 402 kts | 176° |
| 2026-05-06 19:56 | 52.36269 | 7.78325 | 20903 ft | 401 kts | 177° |
| 2026-05-06 19:56 | 52.33477 | 7.78394 | 20905 ft | 400 kts | 185° |
| 2026-05-06 19:56 | 52.30729 | 7.77982 | 20906 ft | 399 kts | 187° |
| 2026-05-06 19:57 | 52.27949 | 7.77517 | 20910 ft | 399 kts | 187° |
| 2026-05-06 19:57 | 52.25178 | 7.77065 | 20910 ft | 399 kts | 187° |
| 2026-05-06 19:57 | 52.22415 | 7.76621 | 20911 ft | 399 kts | 187° |
| 2026-05-06 19:57 | 52.19651 | 7.76180 | 20911 ft | 399 kts | 187° |
| 2026-05-06 19:58 | 52.16930 | 7.75747 | 20911 ft | 399 kts | 187° |
| 2026-05-06 19:58 | 52.14122 | 7.75303 | 20911 ft | 399 kts | 187° |
| 2026-05-06 19:58 | 52.11357 | 7.74866 | 20912 ft | 399 kts | 187° |
| 2026-05-06 19:58 | 52.08593 | 7.74430 | 20912 ft | 399 kts | 187° |
| 2026-05-06 19:59 | 52.05864 | 7.73999 | 20912 ft | 399 kts | 187° |
| 2026-05-06 19:59 | 52.03101 | 7.73564 | 20910 ft | 399 kts | 187° |
| 2026-05-06 19:59 | 52.00327 | 7.73127 | 20889 ft | 402 kts | 187° |
| 2026-05-06 19:59 | 51.97541 | 7.72688 | 20889 ft | 402 kts | 187° |
| 2026-05-06 20:00 | 51.94759 | 7.72252 | 20889 ft | 401 kts | 187° |
| 2026-05-06 20:00 | 51.91983 | 7.71817 | 20892 ft | 401 kts | 187° |
| 2026-05-06 20:00 | 51.89208 | 7.71379 | 20892 ft | 401 kts | 188° |
| 2026-05-06 20:00 | 51.86469 | 7.70590 | 20892 ft | 399 kts | 196° |
| 2026-05-06 20:01 | 51.83833 | 7.69213 | 20889 ft | 398 kts | 204° |
| 2026-05-06 20:01 | 51.81332 | 7.67297 | 20887 ft | 397 kts | 209° |
| 2026-05-06 20:01 | 51.78879 | 7.65242 | 20878 ft | 398 kts | 208° |
| 2026-05-06 20:01 | 51.76414 | 7.63197 | 20885 ft | 400 kts | 208° |
| 2026-05-06 20:02 | 51.73921 | 7.61189 | 20883 ft | 399 kts | 204° |
| 2026-05-06 20:02 | 51.71245 | 7.60001 | 20886 ft | 402 kts | 188° |
| 2026-05-06 20:02 | 51.68444 | 7.60035 | 20886 ft | 405 kts | 172° |
| 2026-05-06 20:02 | 51.65724 | 7.61193 | 20760 ft | 405 kts | 162° |
| 2026-05-06 20:03 | 51.63126 | 7.62772 | 20432 ft | 404 kts | 160° |
| 2026-05-06 20:03 | 51.60518 | 7.64436 | 20030 ft | 402 kts | 160° |
| 2026-05-06 20:03 | 51.57915 | 7.66049 | 19532 ft | 400 kts | 161° |
| 2026-05-06 20:03 | 51.55308 | 7.67602 | 19045 ft | 398 kts | 161° |
| 2026-05-06 20:04 | 51.52719 | 7.69100 | 18575 ft | 395 kts | 162° |
| 2026-05-06 20:04 | 51.50129 | 7.70577 | 18110 ft | 393 kts | 162° |
| 2026-05-06 20:04 | 51.47547 | 7.72037 | 17450 ft | 394 kts | 161° |
| 2026-05-06 20:04 | 51.44971 | 7.73492 | 16973 ft | 390 kts | 161° |
| 2026-05-06 20:05 | 51.42425 | 7.74929 | 16480 ft | 387 kts | 161° |
| 2026-05-06 20:05 | 51.39875 | 7.76311 | 15988 ft | 385 kts | 165° |
| 2026-05-06 20:05 | 51.37273 | 7.77192 | 15498 ft | 381 kts | 173° |
| 2026-05-06 20:05 | 51.34642 | 7.77557 | 15004 ft | 378 kts | 176° |
| 2026-05-06 20:06 | 51.32028 | 7.77860 | 14509 ft | 376 kts | 176° |
| 2026-05-06 20:06 | 51.29435 | 7.78173 | 14113 ft | 371 kts | 176° |
| 2026-05-06 20:06 | 51.26873 | 7.78489 | 13618 ft | 369 kts | 176° |
| 2026-05-06 20:06 | 51.24312 | 7.78724 | 13024 ft | 367 kts | 182° |
| 2026-05-06 20:07 | 51.21845 | 7.78014 | 12532 ft | 363 kts | 201° |
| 2026-05-06 20:07 | 51.19664 | 7.76073 | 11980 ft | 359 kts | 219° |
| 2026-05-06 20:07 | 51.17729 | 7.73568 | 11526 ft | 355 kts | 220° |
| 2026-05-06 20:07 | 51.15857 | 7.71112 | 11384 ft | 342 kts | 220° |
| 2026-05-06 20:08 | 51.14054 | 7.68743 | 11253 ft | 329 kts | 220° |
| 2026-05-06 20:08 | 51.12326 | 7.66476 | 11128 ft | 316 kts | 220° |
| 2026-05-06 20:08 | 51.10663 | 7.64300 | 11001 ft | 302 kts | 220° |
| 2026-05-06 20:08 | 51.09074 | 7.62225 | 10876 ft | 289 kts | 220° |
| 2026-05-06 20:09 | 51.07568 | 7.60264 | 10719 ft | 271 kts | 221° |
| 2026-05-06 20:09 | 51.06148 | 7.58415 | 10360 ft | 261 kts | 221° |
| 2026-05-06 20:09 | 51.04716 | 7.56547 | 9580 ft | 272 kts | 221° |
| 2026-05-06 20:09 | 51.03262 | 7.54653 | 9048 ft | 267 kts | 221° |
| 2026-05-06 20:10 | 51.01835 | 7.52800 | 8562 ft | 263 kts | 221° |
| 2026-05-06 20:10 | 51.00426 | 7.50971 | 8071 ft | 260 kts | 221° |
| 2026-05-06 20:10 | 50.99037 | 7.49169 | 7596 ft | 256 kts | 221° |
| 2026-05-06 20:10 | 50.97665 | 7.47389 | 7141 ft | 253 kts | 221° |
| 2026-05-06 20:11 | 50.96387 | 7.45533 | 6656 ft | 246 kts | 231° |
| 2026-05-06 20:11 | 50.95420 | 7.43342 | 6206 ft | 237 kts | 243° |
| 2026-05-06 20:11 | 50.94700 | 7.41147 | 6029 ft | 220 kts | 247° |
| 2026-05-06 20:11 | 50.94071 | 7.39035 | 5913 ft | 202 kts | 247° |
| 2026-05-06 20:12 | 50.93496 | 7.37142 | 5808 ft | 180 kts | 248° |
| 2026-05-06 20:12 | 50.92972 | 7.35398 | 5408 ft | 172 kts | 248° |
| 2026-05-06 20:12 | 50.92456 | 7.33686 | 4868 ft | 172 kts | 248° |
| 2026-05-06 20:12 | 50.91942 | 7.31983 | 4328 ft | 172 kts | 248° |
| 2026-05-06 20:13 | 50.91426 | 7.30274 | 3749 ft | 171 kts | 248° |
| 2026-05-06 20:13 | 50.90920 | 7.28558 | 3078 ft | 177 kts | 250° |
| 2026-05-06 20:13 | 50.90416 | 7.26819 | 2602 ft | 172 kts | 249° |
| 2026-05-06 20:13 | 50.89883 | 7.25076 | 1897 ft | 179 kts | 247° |
| 2026-05-06 20:14 | 50.89328 | 7.23328 | 1415 ft | 170 kts | 247° |
| 2026-05-06 20:14 | 50.88851 | 7.21752 | 1179 ft | 149 kts | 247° |
| 2026-05-06 20:14 | 50.88398 | 7.20253 | 975 ft | 152 kts | 246° |
| 2026-05-06 20:14 | 50.87955 | 7.18789 | 779 ft | 148 kts | 246° |
| 2026-05-06 20:15 | 50.87509 | 7.17312 | 589 ft | 145 kts | 246° |
| 2026-05-06 20:15 | 50.87066 | 7.15875 | 371 ft | 144 kts | 247° |
| 2026-05-06 20:15 | 50.86664 | 7.14511 | 265 ft | 124 kts | 245° |
| 2026-05-06 20:15 | 50.86442 | 7.13769 | 256 ft | 62 kts | 244° |
| 2026-05-06 20:16 | 50.86254 | 7.13153 | 251 ft | 59 kts | 243° |
| 2026-05-06 20:16 | 50.86121 | 7.12733 | 248 ft | 32 kts | 241° |
| 2026-05-06 20:16 | 50.86085 | 7.12625 | 250 ft | 18 kts | 243° |
| 2026-05-06 20:16 | 50.86048 | 7.12441 | 250 ft | 15 kts | 274° |
| 2026-05-06 20:17 | 50.86096 | 7.12381 | 248 ft | 8 kts | 334° |
| 2026-05-06 20:17 | 50.86149 | 7.12356 | 246 ft | 9 kts | 347° |
| 2026-05-06 20:17 | 50.86213 | 7.12333 | 243 ft | 10 kts | 348° |
| 2026-05-06 20:17 | 50.86283 | 7.12310 | 239 ft | 11 kts | 348° |
| 2026-05-06 20:18 | 50.86324 | 7.12290 | 238 ft | 3 kts | 330° |
| 2026-05-06 20:18 | 50.86331 | 7.12267 | 238 ft | 3 kts | 297° |
| 2026-05-06 20:18 | 50.86331 | 7.12242 | 238 ft | 2 kts | 272° |
| 2026-05-06 20:18 | 50.86327 | 7.12222 | 238 ft | 4 kts | 255° |
| 2026-05-06 20:19 | 50.86319 | 7.12174 | 238 ft | 4 kts | 256° |
| 2026-05-06 20:19 | 50.86316 | 7.12151 | 238 ft | 1 kts | 257° |
| 2026-05-06 20:19 | 50.86313 | 7.12124 | 238 ft | 0 kts | 257° |